createdAt,value
2019-02-21T00:01:26.063Z,9.20
2019-02-21T00:03:58.189Z,9.03
2019-02-21T00:06:30.315Z,10.47
2019-02-21T00:09:02.463Z,12.67
2019-02-21T00:11:35.664Z,9.47
2019-02-21T00:14:07.801Z,12.03
2019-02-21T00:16:39.945Z,10.40
2019-02-21T00:19:12.405Z,9.30
2019-02-21T00:21:44.538Z,8.77
2019-02-21T00:24:16.664Z,6.53
2019-02-21T00:26:48.797Z,8.37
2019-02-21T00:29:20.930Z,10.67
2019-02-21T00:31:53.075Z,10.50
2019-02-21T00:34:25.201Z,6.30
2019-02-21T00:36:57.583Z,9.97
2019-02-21T00:39:29.714Z,8.03
2019-02-21T00:42:01.839Z,5.77
2019-02-21T00:44:34.004Z,6.97
2019-02-21T00:47:06.135Z,9.90
2019-02-21T00:49:38.270Z,8.00
2019-02-21T00:52:10.401Z,6.13
2019-02-21T00:54:42.532Z,6.33
2019-02-21T00:57:14.671Z,5.53
2019-02-21T00:59:46.805Z,8.93
2019-02-21T01:02:18.942Z,6.63
2019-02-21T01:04:51.071Z,5.97
2019-02-21T01:07:23.223Z,6.60
2019-02-21T01:09:55.337Z,6.00
2019-02-21T01:12:27.468Z,4.77
2019-02-21T01:14:59.597Z,5.13
2019-02-21T01:17:31.731Z,5.30
2019-02-21T01:20:03.858Z,5.47
2019-02-21T01:22:35.992Z,6.53
2019-02-21T01:25:08.133Z,7.27
2019-02-21T01:27:40.251Z,5.87
2019-02-21T01:30:12.384Z,5.77
2019-02-21T01:32:44.519Z,7.43
2019-02-21T01:35:16.646Z,6.03
2019-02-21T01:37:48.776Z,5.43
2019-02-21T01:40:20.908Z,6.30
2019-02-21T01:42:53.052Z,7.40
2019-02-21T01:45:25.184Z,10.30
2019-02-21T01:47:57.331Z,5.70
2019-02-21T01:50:31.498Z,6.37
2019-02-21T01:53:03.297Z,7.33
2019-02-21T01:55:35.433Z,19.23
2019-02-21T01:58:07.574Z,6.23
2019-02-21T02:00:39.703Z,7.47
2019-02-21T02:03:11.840Z,4.97
2019-02-21T02:05:43.965Z,6.83
2019-02-21T02:08:16.106Z,6.90
2019-02-21T02:10:48.233Z,7.43
2019-02-21T02:13:24.583Z,7.87
2019-02-21T02:15:54.191Z,9.03
2019-02-21T02:18:26.330Z,12.83
2019-02-21T02:20:58.470Z,7.27
2019-02-21T02:23:30.600Z,8.67
2019-02-21T02:26:02.732Z,7.43
2019-02-21T02:28:34.894Z,8.43
2019-02-21T02:31:07.005Z,8.30
2019-02-21T02:33:39.126Z,7.27
2019-02-21T02:36:11.260Z,5.90
2019-02-21T02:38:43.384Z,9.87
2019-02-21T02:41:15.514Z,5.80
2019-02-21T02:43:47.640Z,5.03
2019-02-21T02:46:19.806Z,5.57
2019-02-21T02:48:51.891Z,5.93
2019-02-21T02:51:24.021Z,7.60
2019-02-21T02:53:56.156Z,7.67
2019-02-21T02:56:29.365Z,7.17
2019-02-21T02:59:01.482Z,5.83
2019-02-21T03:01:35.288Z,6.23
2019-02-21T03:04:07.431Z,5.47
2019-02-21T03:06:39.658Z,7.70
2019-02-21T03:09:11.762Z,8.20
2019-02-21T03:11:43.893Z,10.80
2019-02-21T03:14:16.045Z,10.13
2019-02-21T03:16:48.172Z,5.60
2019-02-21T03:19:20.318Z,6.93
2019-02-21T03:21:52.433Z,5.93
2019-02-21T03:24:24.808Z,7.07
2019-02-21T03:26:56.940Z,6.83
2019-02-21T03:29:29.073Z,7.03
2019-02-21T03:32:01.206Z,6.97
2019-02-21T03:34:33.341Z,6.57
2019-02-21T03:37:05.479Z,6.30
2019-02-21T03:39:37.604Z,6.97
2019-02-21T03:42:09.730Z,5.27
2019-02-21T03:44:42.834Z,9.63
2019-02-21T03:47:14.966Z,13.33
2019-02-21T03:49:47.359Z,10.03
2019-02-21T03:52:19.489Z,13.77
2019-02-21T03:54:51.627Z,9.67
2019-02-21T03:57:23.757Z,10.20
2019-02-21T03:59:55.889Z,7.30
2019-02-21T04:02:28.022Z,7.90
2019-02-21T04:05:00.366Z,7.47
2019-02-21T04:07:32.598Z,9.77
2019-02-21T04:10:04.720Z,10.17
2019-02-21T04:12:36.848Z,11.87
2019-02-21T04:15:08.977Z,7.30
2019-02-21T04:17:41.122Z,12.20
2019-02-21T04:20:13.260Z,20.30
2019-02-21T04:22:45.385Z,7.10
2019-02-21T04:25:17.529Z,11.13
2019-02-21T04:27:49.664Z,8.73
2019-02-21T04:30:21.795Z,6.93
2019-02-21T04:32:53.919Z,7.57
2019-02-21T04:35:26.049Z,6.83
2019-02-21T04:37:58.177Z,8.33
2019-02-21T04:40:30.305Z,6.23
2019-02-21T04:43:03.508Z,9.50
2019-02-21T04:45:35.651Z,8.63
2019-02-21T04:48:07.772Z,7.27
2019-02-21T04:50:39.907Z,9.13
2019-02-21T04:53:12.034Z,9.00
2019-02-21T04:55:45.239Z,6.40
2019-02-21T04:58:17.374Z,6.70
2019-02-21T05:00:49.499Z,6.67
2019-02-21T05:03:21.642Z,7.87
2019-02-21T05:05:53.779Z,11.23
2019-02-21T05:08:25.901Z,8.43
2019-02-21T05:10:58.039Z,6.63
2019-02-21T05:13:30.173Z,7.37
2019-02-21T05:16:02.292Z,5.40
2019-02-21T05:18:34.420Z,8.10
2019-02-21T05:21:06.549Z,5.43
2019-02-21T05:23:38.679Z,6.60
2019-02-21T05:26:10.812Z,8.23
2019-02-21T05:28:43.010Z,19.93
2019-02-21T05:31:15.156Z,10.77
2019-02-21T05:33:47.288Z,12.33
2019-02-21T05:36:20.494Z,8.50
2019-02-21T05:38:53.701Z,9.70
2019-02-21T05:41:25.842Z,8.10
2019-02-21T05:43:57.961Z,8.67
2019-02-21T05:46:30.091Z,11.07
2019-02-21T05:49:02.225Z,11.13
2019-02-21T05:51:34.352Z,9.50
2019-02-21T05:54:06.489Z,9.60
2019-02-21T05:56:38.618Z,8.60
2019-02-21T05:59:10.744Z,6.70
2019-02-21T06:01:42.895Z,10.83
2019-02-21T06:04:15.025Z,15.20
2019-02-21T06:06:47.162Z,11.93
2019-02-21T06:09:19.309Z,49.97
2019-02-21T06:11:51.440Z,82.77
2019-02-21T06:14:23.572Z,79.33
2019-02-21T06:16:55.706Z,94.57
2019-02-21T06:19:28.161Z,73.50
2019-02-21T06:22:10.005Z,77.27
2019-02-21T06:24:34.125Z,73.60
2019-02-21T06:27:06.261Z,62.10
2019-02-21T06:29:38.403Z,55.30
2019-02-21T06:32:14.139Z,73.57
2019-02-21T06:34:44.384Z,50.60
2019-02-21T06:37:16.526Z,59.60
2019-02-21T06:39:48.662Z,49.00
2019-02-21T06:42:20.800Z,40.43
2019-02-21T06:44:52.933Z,39.50
2019-02-21T06:47:25.060Z,37.17
2019-02-21T06:49:58.771Z,35.77
2019-02-21T06:52:31.006Z,31.50
2019-02-21T06:55:03.160Z,37.40
2019-02-21T06:57:35.280Z,34.23
2019-02-21T07:00:07.412Z,33.80
2019-02-21T07:02:39.553Z,34.10
2019-02-21T07:05:11.707Z,30.57
2019-02-21T07:07:43.834Z,34.10
2019-02-21T07:10:15.977Z,29.30
2019-02-21T07:12:48.108Z,27.97
2019-02-21T07:15:20.240Z,25.47
2019-02-21T07:17:52.373Z,25.30
2019-02-21T07:20:24.503Z,24.17
2019-02-21T07:22:56.643Z,19.27
2019-02-21T07:25:28.774Z,23.73
2019-02-21T07:28:11.381Z,17.77
2019-02-21T07:30:35.001Z,18.80
2019-02-21T07:33:07.126Z,19.33
2019-02-21T07:35:39.258Z,21.20
2019-02-21T07:38:11.391Z,16.90
2019-02-21T07:40:43.526Z,16.80
2019-02-21T07:43:15.654Z,18.90
2019-02-21T07:45:47.789Z,18.43
2019-02-21T07:48:19.917Z,16.40
2019-02-21T07:50:52.057Z,14.13
2019-02-21T07:53:24.182Z,17.67
2019-02-21T07:55:56.323Z,13.67
2019-02-21T07:58:28.452Z,15.40
2019-02-21T08:01:00.590Z,20.10
2019-02-21T08:03:43.863Z,13.63
2019-02-21T08:06:06.554Z,12.13
2019-02-21T08:08:38.671Z,10.43
2019-02-21T08:11:10.799Z,14.33
2019-02-21T08:13:42.926Z,10.47
2019-02-21T08:16:15.063Z,13.10
2019-02-21T08:18:47.197Z,14.07
2019-02-21T08:21:19.323Z,12.07
2019-02-21T08:23:51.470Z,11.00
2019-02-21T08:26:23.599Z,10.37
2019-02-21T08:28:55.723Z,9.33
2019-02-21T08:31:27.863Z,13.53
2019-02-21T08:33:59.995Z,13.07
2019-02-21T08:36:32.127Z,9.57
2019-02-21T08:39:04.246Z,12.03
2019-02-21T08:41:37.856Z,12.10
2019-02-21T08:44:09.985Z,11.00
2019-02-21T08:46:42.117Z,10.90
2019-02-21T08:49:14.250Z,11.70
2019-02-21T08:51:46.389Z,9.67
2019-02-21T08:54:18.510Z,11.70
2019-02-21T08:56:50.696Z,12.70
2019-02-21T08:59:22.782Z,11.33
2019-02-21T09:01:54.913Z,10.20
2019-02-21T09:04:27.999Z,9.67
2019-02-21T09:07:00.257Z,11.47
2019-02-21T09:09:33.466Z,10.57
2019-02-21T09:12:05.923Z,10.07
2019-02-21T09:14:38.201Z,9.47
2019-02-21T09:17:10.336Z,12.83
2019-02-21T09:19:42.472Z,9.30
2019-02-21T09:22:15.585Z,8.37
2019-02-21T09:24:47.717Z,11.37
2019-02-21T09:27:19.848Z,9.10
2019-02-21T09:29:51.975Z,8.60
2019-02-21T09:32:24.105Z,8.57
2019-02-21T09:34:58.709Z,11.60
2019-02-21T09:37:30.069Z,10.67
2019-02-21T09:40:02.199Z,11.90
2019-02-21T09:42:34.385Z,9.03
2019-02-21T09:45:06.517Z,9.00
2019-02-21T09:47:38.654Z,11.93
2019-02-21T09:50:10.785Z,12.20
2019-02-21T09:52:42.923Z,9.47
2019-02-21T09:55:15.035Z,13.83
2019-02-21T09:57:47.166Z,10.30
2019-02-21T10:00:19.300Z,9.70
2019-02-21T10:02:55.831Z,11.40
2019-02-21T10:05:25.329Z,10.87
2019-02-21T10:07:57.469Z,8.83
2019-02-21T10:10:29.595Z,8.07
2019-02-21T10:13:01.726Z,12.43
2019-02-21T10:15:33.861Z,10.37
2019-02-21T10:18:05.992Z,8.60
2019-02-21T10:20:38.120Z,8.33
2019-02-21T10:23:10.251Z,9.00
2019-02-21T10:25:42.388Z,10.00
2019-02-21T10:28:14.528Z,8.37
2019-02-21T10:30:46.662Z,9.43
2019-02-21T10:33:18.793Z,8.27
2019-02-21T10:35:50.914Z,10.17
2019-02-21T10:38:23.051Z,8.70
2019-02-21T10:40:55.178Z,11.13
2019-02-21T10:43:27.310Z,9.20
2019-02-21T10:45:59.435Z,9.20
2019-02-21T10:48:31.595Z,10.23
2019-02-21T10:51:03.731Z,9.87
2019-02-21T10:53:35.857Z,11.10
2019-02-21T10:56:07.991Z,10.40
2019-02-21T10:58:40.126Z,9.20
2019-02-21T11:01:12.259Z,10.13
2019-02-21T11:03:44.382Z,9.43
2019-02-21T11:06:16.514Z,9.23
2019-02-21T11:08:48.637Z,9.53
2019-02-21T11:11:20.773Z,8.27
2019-02-21T11:13:52.904Z,8.30
2019-02-21T11:16:25.038Z,8.77
2019-02-21T11:18:57.166Z,7.50
2019-02-21T11:21:29.296Z,8.97
2019-02-21T11:24:01.424Z,8.23
2019-02-21T11:26:33.554Z,7.83
2019-02-21T11:29:05.701Z,8.37
2019-02-21T11:31:37.815Z,8.83
2019-02-21T11:34:09.943Z,8.30
2019-02-21T11:36:42.070Z,8.13
2019-02-21T11:39:14.194Z,7.87
2019-02-21T11:41:46.329Z,8.37
2019-02-21T11:44:18.450Z,7.80
2019-02-21T11:46:50.587Z,9.23
2019-02-21T11:49:22.710Z,8.73
2019-02-21T11:51:54.834Z,8.50
2019-02-21T11:54:27.522Z,8.40
2019-02-21T11:56:59.874Z,10.70
2019-02-21T11:59:32.003Z,8.80
2019-02-21T12:02:04.140Z,9.07
2019-02-21T12:04:36.274Z,10.17
2019-02-21T12:07:08.420Z,8.57
2019-02-21T12:09:40.533Z,9.67
2019-02-21T12:12:14.279Z,8.47
2019-02-21T12:14:46.402Z,8.53
2019-02-21T12:17:18.531Z,9.00
2019-02-21T12:19:50.667Z,8.00
2019-02-21T12:22:22.801Z,7.70
2019-02-21T12:24:54.928Z,9.57
2019-02-21T12:27:27.073Z,9.30
2019-02-21T12:29:59.188Z,9.63
2019-02-21T12:32:31.321Z,7.07
2019-02-21T12:35:03.686Z,7.80
2019-02-21T12:37:35.898Z,8.47
2019-02-21T12:40:08.021Z,8.03
2019-02-21T12:42:40.159Z,7.40
2019-02-21T12:45:12.285Z,7.20
2019-02-21T12:47:50.793Z,6.93
2019-02-21T12:50:18.250Z,6.97
2019-02-21T12:52:50.376Z,9.10
2019-02-21T12:55:29.197Z,7.83
2019-02-21T12:57:56.333Z,9.40
2019-02-21T13:00:28.455Z,9.13
2019-02-21T13:03:00.581Z,9.63
2019-02-21T13:05:40.403Z,8.23
2019-02-21T13:08:06.532Z,7.93
2019-02-21T13:10:38.665Z,7.00
2019-02-21T13:13:10.800Z,8.47
2019-02-21T13:15:42.924Z,8.60
2019-02-21T13:18:16.215Z,7.60
2019-02-21T13:20:48.706Z,9.70
2019-02-21T13:23:20.839Z,9.43
2019-02-21T13:25:52.962Z,8.60
2019-02-21T13:28:25.099Z,7.90
2019-02-21T13:30:57.234Z,11.17
2019-02-21T13:33:29.355Z,8.00
2019-02-21T13:36:02.453Z,7.50
2019-02-21T13:38:34.588Z,7.53
2019-02-21T13:41:06.713Z,8.10
2019-02-21T13:43:38.844Z,8.07
2019-02-21T13:46:10.972Z,7.27
2019-02-21T13:48:43.103Z,7.73
2019-02-21T13:51:15.229Z,7.43
2019-02-21T13:53:47.367Z,7.23
2019-02-21T13:56:19.490Z,9.27
2019-02-21T13:58:51.617Z,6.07
2019-02-21T14:01:23.743Z,6.80
2019-02-21T14:03:56.698Z,6.17
2019-02-21T14:06:28.884Z,6.37
2019-02-21T14:09:01.025Z,5.83
2019-02-21T14:11:34.764Z,6.30
2019-02-21T14:14:06.899Z,5.17
2019-02-21T14:16:46.599Z,8.47
2019-02-21T14:19:12.862Z,8.97
2019-02-21T14:21:44.987Z,6.67
2019-02-21T14:24:17.109Z,6.33
2019-02-21T14:26:49.243Z,7.70
2019-02-21T14:29:21.373Z,7.50
2019-02-21T14:31:53.497Z,5.00
2019-02-21T14:34:25.632Z,5.37
2019-02-21T14:36:57.760Z,7.27
2019-02-21T14:39:29.892Z,4.90
2019-02-21T14:42:04.358Z,6.77
2019-02-21T14:44:35.842Z,7.27
2019-02-21T14:47:08.296Z,7.37
2019-02-21T14:49:40.496Z,6.50
2019-02-21T14:52:12.620Z,6.13
2019-02-21T14:54:44.756Z,6.03
2019-02-21T14:57:16.878Z,5.27
2019-02-21T14:59:49.010Z,4.73
2019-02-21T15:02:21.139Z,6.07
2019-02-21T15:04:53.301Z,4.93
2019-02-21T15:07:26.370Z,7.67
2019-02-21T15:09:58.637Z,5.10
2019-02-21T15:12:30.754Z,6.63
2019-02-21T15:15:02.890Z,5.23
2019-02-21T15:17:35.088Z,5.83
2019-02-21T15:20:07.245Z,5.73
2019-02-21T15:22:39.616Z,5.23
2019-02-21T15:25:11.734Z,7.27
2019-02-21T15:27:43.860Z,6.73
2019-02-21T15:30:15.985Z,5.27
2019-02-21T15:32:48.112Z,5.63
2019-02-21T15:35:20.243Z,6.27
2019-02-21T15:37:52.369Z,5.73
2019-02-21T15:40:24.498Z,5.37
2019-02-21T15:42:56.629Z,5.37
2019-02-21T15:45:28.766Z,5.40
2019-02-21T15:48:00.886Z,5.47
2019-02-21T15:50:33.020Z,5.20
2019-02-21T15:53:05.160Z,5.70
2019-02-21T15:55:37.280Z,5.67
2019-02-21T15:58:09.404Z,6.97
2019-02-21T16:00:41.540Z,5.23
2019-02-21T16:03:13.663Z,5.07
2019-02-21T16:05:45.804Z,8.43
2019-02-21T16:08:17.943Z,4.57
2019-02-21T16:10:50.075Z,5.53
2019-02-21T16:13:22.765Z,8.83
2019-02-21T16:15:55.143Z,8.73
2019-02-21T16:18:27.296Z,6.93
2019-02-21T16:20:59.445Z,6.67
2019-02-21T16:23:31.564Z,8.97
2019-02-21T16:26:03.691Z,8.63
2019-02-21T16:28:35.827Z,7.50
2019-02-21T16:31:07.961Z,6.37
2019-02-21T16:33:40.096Z,7.27
2019-02-21T16:36:12.222Z,6.93
2019-02-21T16:38:44.360Z,9.47
2019-02-21T16:41:16.503Z,8.87
2019-02-21T16:43:48.672Z,8.17
2019-02-21T16:46:20.806Z,6.27
2019-02-21T16:48:52.965Z,6.20
2019-02-21T16:51:25.129Z,5.90
2019-02-21T16:53:57.212Z,7.33
2019-02-21T16:56:29.340Z,7.40
2019-02-21T16:59:01.469Z,7.73
2019-02-21T17:01:33.614Z,7.80
2019-02-21T17:04:05.736Z,7.10
2019-02-21T17:06:38.837Z,7.57
2019-02-21T17:09:10.967Z,9.53
2019-02-21T17:11:43.178Z,7.13
2019-02-21T17:14:15.315Z,10.60
2019-02-21T17:16:47.430Z,8.10
2019-02-21T17:19:19.573Z,10.07
2019-02-21T17:21:51.704Z,11.67
2019-02-21T17:24:23.837Z,8.07
2019-02-21T17:26:56.476Z,8.17
2019-02-21T17:29:28.596Z,10.43
2019-02-21T17:32:00.726Z,7.53
2019-02-21T17:34:32.854Z,8.60
2019-02-21T17:37:04.988Z,9.53
2019-02-21T17:39:38.196Z,9.03
2019-02-21T17:42:10.331Z,7.37
2019-02-21T17:44:42.453Z,7.43
2019-02-21T17:47:14.585Z,7.87
2019-02-21T17:49:46.737Z,6.80
2019-02-21T17:52:18.862Z,5.73
2019-02-21T17:54:51.002Z,7.77
2019-02-21T17:57:23.128Z,5.50
2019-02-21T17:59:55.263Z,5.80
2019-02-21T18:02:27.387Z,8.67
2019-02-21T18:04:59.524Z,9.47
2019-02-21T18:07:36.329Z,7.73
2019-02-21T18:10:05.503Z,12.93
2019-02-21T18:12:37.639Z,8.07
2019-02-21T18:15:09.783Z,10.97
2019-02-21T18:17:41.910Z,8.73
2019-02-21T18:20:14.045Z,11.13
2019-02-21T18:22:46.175Z,11.50
2019-02-21T18:25:18.320Z,6.97
2019-02-21T18:27:50.447Z,6.43
2019-02-21T18:30:22.607Z,9.43
2019-02-21T18:32:54.727Z,7.83
2019-02-21T18:35:26.845Z,9.77
2019-02-21T18:37:58.975Z,9.23
2019-02-21T18:40:31.102Z,9.17
2019-02-21T18:43:03.231Z,8.07
2019-02-21T18:45:35.358Z,6.23
2019-02-21T18:48:07.500Z,7.67
2019-02-21T18:50:39.629Z,8.37
2019-02-21T18:53:11.763Z,12.13
2019-02-21T18:55:43.912Z,9.93
2019-02-21T18:58:16.048Z,5.87
2019-02-21T19:00:48.184Z,8.60
2019-02-21T19:03:20.318Z,6.57
2019-02-21T19:05:52.452Z,8.27
2019-02-21T19:08:24.582Z,8.47
2019-02-21T19:10:56.717Z,9.50
2019-02-21T19:13:28.836Z,7.13
2019-02-21T19:16:00.972Z,8.60
2019-02-21T19:18:33.104Z,6.17
2019-02-21T19:21:05.237Z,8.33
2019-02-21T19:23:37.368Z,9.03
2019-02-21T19:26:09.501Z,7.57
2019-02-21T19:28:41.632Z,9.57
2019-02-21T19:31:13.771Z,7.73
2019-02-21T19:33:45.893Z,8.33
2019-02-21T19:36:18.025Z,4.70
2019-02-21T19:38:50.156Z,6.90
2019-02-21T19:41:22.280Z,7.60
2019-02-21T19:43:54.411Z,5.80
2019-02-21T19:46:26.537Z,8.67
2019-02-21T19:48:58.663Z,6.27
2019-02-21T19:51:30.806Z,9.73
2019-02-21T19:54:02.945Z,7.83
2019-02-21T19:56:35.073Z,5.67
2019-02-21T19:59:07.208Z,5.97
2019-02-21T20:01:39.357Z,6.80
2019-02-21T20:04:11.482Z,6.73
2019-02-21T20:06:43.627Z,7.73
2019-02-21T20:09:15.752Z,15.33
2019-02-21T20:11:47.905Z,6.43
2019-02-21T20:14:20.009Z,5.33
2019-02-21T20:16:52.146Z,10.13
2019-02-21T20:19:24.274Z,11.43
2019-02-21T20:21:56.409Z,10.93
2019-02-21T20:24:28.557Z,10.60
2019-02-21T20:27:04.996Z,9.87
2019-02-21T20:29:37.135Z,15.53
2019-02-21T20:32:09.261Z,11.17
2019-02-21T20:34:41.569Z,12.40
2019-02-21T20:37:13.697Z,14.97
2019-02-21T20:39:45.827Z,9.40
2019-02-21T20:42:17.958Z,15.23
2019-02-21T20:44:50.090Z,12.57
2019-02-21T20:47:22.240Z,14.53
2019-02-21T20:49:55.332Z,12.43
2019-02-21T20:52:27.480Z,9.70
2019-02-21T20:54:59.606Z,10.80
2019-02-21T20:57:31.748Z,14.30
2019-02-21T21:00:03.884Z,9.03
2019-02-21T21:02:37.679Z,18.63
2019-02-21T21:05:10.068Z,11.83
2019-02-21T21:07:42.206Z,11.80
2019-02-21T21:10:14.358Z,10.07
2019-02-21T21:12:46.788Z,10.53
2019-02-21T21:15:18.929Z,15.20
2019-02-21T21:17:51.060Z,15.77
2019-02-21T21:20:26.039Z,14.57
2019-02-21T21:22:57.019Z,19.40
2019-02-21T21:25:31.791Z,14.03
2019-02-21T21:28:03.079Z,12.37
2019-02-21T21:30:36.279Z,10.77
2019-02-21T21:33:08.697Z,14.00
2019-02-21T21:35:40.828Z,13.37
2019-02-21T21:38:23.498Z,9.60
2019-02-21T21:40:46.794Z,10.13
2019-02-21T21:43:18.924Z,9.47
2019-02-21T21:45:51.048Z,8.50
2019-02-21T21:48:23.178Z,12.33
2019-02-21T21:50:55.318Z,8.37
2019-02-21T21:53:27.456Z,9.90
2019-02-21T21:55:59.585Z,13.83
2019-02-21T21:58:31.727Z,14.87
2019-02-21T22:01:03.880Z,12.20
2019-02-21T22:03:35.994Z,13.17
2019-02-21T22:06:08.125Z,10.23
2019-02-21T22:08:40.338Z,11.57
2019-02-21T22:11:12.472Z,14.33
2019-02-21T22:13:44.613Z,9.93
2019-02-21T22:16:16.740Z,9.27
2019-02-21T22:18:48.885Z,9.17
2019-02-21T22:21:21.012Z,11.17
2019-02-21T22:23:53.147Z,10.80
2019-02-21T22:26:25.290Z,10.30
2019-02-21T22:28:57.429Z,11.87
2019-02-21T22:31:29.860Z,9.60
2019-02-21T22:34:01.995Z,9.83
2019-02-21T22:36:34.132Z,13.33
2019-02-21T22:39:15.927Z,11.57
2019-02-21T22:41:40.090Z,10.03
2019-02-21T22:44:12.229Z,12.27
2019-02-21T22:46:44.355Z,8.50
2019-02-21T22:49:16.766Z,10.30
2019-02-21T22:51:48.896Z,8.47
2019-02-21T22:54:21.034Z,8.33
2019-02-21T22:56:53.168Z,13.37
2019-02-21T22:59:25.322Z,7.13
2019-02-21T23:01:57.437Z,10.37
2019-02-21T23:04:29.582Z,11.67
2019-02-21T23:07:01.775Z,11.37
2019-02-21T23:09:33.916Z,11.77
2019-02-21T23:12:06.064Z,9.83
2019-02-21T23:14:38.195Z,9.47
2019-02-21T23:17:10.323Z,9.03
2019-02-21T23:19:42.460Z,9.57
2019-02-21T23:22:14.596Z,10.60
2019-02-21T23:24:46.726Z,10.30
2019-02-21T23:27:18.854Z,10.53
2019-02-21T23:29:50.996Z,10.83
2019-02-21T23:32:23.129Z,9.70
2019-02-21T23:34:55.257Z,8.60
2019-02-21T23:37:27.396Z,9.57
2019-02-21T23:39:59.523Z,9.43
2019-02-21T23:42:31.663Z,7.57
2019-02-21T23:45:03.794Z,8.23
2019-02-21T23:47:35.927Z,9.50
2019-02-21T23:50:08.059Z,10.57
2019-02-21T23:52:40.191Z,8.10
2019-02-21T23:55:12.325Z,10.37
2019-02-21T23:57:44.460Z,9.27
